createdAt,value
2019-04-14T00:02:09.614Z,47.97
2019-04-14T00:04:53.658Z,51.87
2019-04-14T00:07:42.746Z,43.90
2019-04-14T00:10:24.594Z,47.47
2019-04-14T00:13:08.860Z,47.87
2019-04-14T00:15:50.430Z,46.03
2019-04-14T00:18:31.577Z,46.47
2019-04-14T00:21:19.773Z,46.60
2019-04-14T00:24:09.478Z,47.40
2019-04-14T00:26:57.264Z,50.87
2019-04-14T00:29:39.204Z,46.40
2019-04-14T00:32:22.594Z,49.77
2019-04-14T00:35:08.282Z,47.20
2019-04-14T00:38:08.877Z,46.27
2019-04-14T00:40:56.787Z,47.83
2019-04-14T00:43:41.711Z,50.27
2019-04-14T00:46:45.715Z,49.53
2019-04-14T00:49:36.072Z,49.13
2019-04-14T00:52:27.680Z,48.60
2019-04-14T00:55:16.186Z,49.17
2019-04-14T00:57:59.700Z,44.77
2019-04-14T01:00:47.349Z,45.63
2019-04-14T01:03:26.582Z,44.27
2019-04-14T01:06:09.740Z,40.33
2019-04-14T01:08:53.804Z,43.93
2019-04-14T01:11:40.002Z,43.70
2019-04-14T01:14:21.295Z,45.83
2019-04-14T01:17:02.778Z,36.77
2019-04-14T01:19:41.663Z,41.67
2019-04-14T01:22:26.999Z,45.70
2019-04-14T01:25:19.365Z,41.00
2019-04-14T01:28:00.686Z,41.77
2019-04-14T01:30:54.481Z,36.97
2019-04-14T01:33:42.442Z,39.93
2019-04-14T01:36:25.868Z,41.23
2019-04-14T01:39:13.336Z,41.87
2019-04-14T01:41:58.533Z,42.93
2019-04-14T01:44:52.486Z,43.17
2019-04-14T01:47:31.304Z,39.93
2019-04-14T01:50:23.441Z,39.07
2019-04-14T01:53:40.594Z,41.30
2019-04-14T01:56:25.958Z,41.27
2019-04-14T01:59:11.406Z,40.73
2019-04-14T02:02:18.337Z,44.97
2019-04-14T02:04:57.701Z,45.87
2019-04-14T02:07:40.465Z,45.17
2019-04-14T02:10:24.022Z,44.33
2019-04-14T02:13:13.333Z,43.07
2019-04-14T02:16:13.038Z,35.37
2019-04-14T02:18:52.262Z,38.00
2019-04-14T02:21:34.577Z,42.27
2019-04-14T02:24:20.385Z,40.93
2019-04-14T02:27:01.158Z,39.53
2019-04-14T02:29:40.837Z,38.00
2019-04-14T02:32:59.865Z,39.23
2019-04-14T02:35:50.654Z,40.10
2019-04-14T02:38:34.192Z,37.17
2019-04-14T02:41:21.535Z,39.37
2019-04-14T02:44:01.907Z,40.37
2019-04-14T02:47:09.853Z,38.53
2019-04-14T02:49:47.141Z,35.90
2019-04-14T02:52:35.298Z,39.80
2019-04-14T02:55:15.307Z,39.37
2019-04-14T03:01:23.200Z,38.97
2019-04-14T03:04:13.004Z,36.00
2019-04-14T03:06:54.789Z,39.00
2019-04-14T03:09:58.615Z,39.00
2019-04-14T03:12:33.943Z,35.60
2019-04-14T03:15:20.201Z,39.10
2019-04-14T03:18:33.840Z,36.30
2019-04-14T03:21:29.760Z,35.63
2019-04-14T03:30:05.045Z,34.23
2019-04-14T03:38:24.659Z,35.37
2019-04-14T03:41:00.130Z,35.63
2019-04-14T03:43:38.684Z,35.20
2019-04-14T03:46:29.318Z,35.50
2019-04-14T03:49:17.874Z,33.97
2019-04-14T03:54:34.982Z,30.30
2019-04-14T03:56:55.733Z,32.77
2019-04-14T03:59:44.188Z,31.67
2019-04-14T04:02:29.338Z,31.53
2019-04-14T04:05:15.142Z,30.03
2019-04-14T04:08:25.057Z,29.80
2019-04-14T04:11:10.898Z,29.63
2019-04-14T04:14:03.781Z,29.37
2019-04-14T04:17:07.976Z,30.73
2019-04-14T04:19:49.182Z,28.00
2019-04-14T04:22:46.130Z,28.83
2019-04-14T04:25:31.115Z,29.37
2019-04-14T04:28:21.028Z,29.57
2019-04-14T04:31:08.810Z,29.23
2019-04-14T04:33:59.494Z,28.13
2019-04-14T04:36:53.049Z,28.50
2019-04-14T04:39:35.266Z,28.67
2019-04-14T04:42:17.897Z,27.37
2019-04-14T04:45:06.161Z,29.97
2019-04-14T04:47:53.561Z,29.07
2019-04-14T04:50:34.861Z,28.87
2019-04-14T04:53:20.088Z,30.67
2019-04-14T04:56:08.137Z,27.57
2019-04-14T04:58:50.236Z,29.43
2019-04-14T05:01:29.631Z,25.10
2019-04-14T05:04:06.905Z,27.60
2019-04-14T05:06:50.522Z,26.77
2019-04-14T05:09:39.114Z,29.10
2019-04-14T05:12:30.623Z,27.70
2019-04-14T05:15:16.230Z,24.70
2019-04-14T05:17:54.009Z,28.43
2019-04-14T05:20:31.391Z,23.43
2019-04-14T05:23:08.631Z,23.00
2019-04-14T05:25:45.880Z,24.20
2019-04-14T05:28:24.405Z,22.97
2019-04-14T05:31:01.807Z,23.27
2019-04-14T05:33:40.346Z,22.30
2019-04-14T05:36:17.706Z,24.80
2019-04-14T05:38:55.941Z,22.60
2019-04-14T05:41:33.240Z,21.40
2019-04-14T05:44:10.587Z,20.93
2019-04-14T05:46:47.828Z,20.80
2019-04-14T05:49:34.899Z,22.47
2019-04-14T05:52:05.580Z,22.50
2019-04-14T05:54:43.017Z,26.40
2019-04-14T05:57:20.263Z,23.47
2019-04-14T05:59:57.602Z,23.80
2019-04-14T06:02:35.599Z,21.73
2019-04-14T06:05:13.076Z,25.13
2019-04-14T06:07:51.659Z,23.80
2019-04-14T06:10:29.107Z,20.90
2019-04-14T06:13:06.357Z,21.97
2019-04-14T06:15:43.688Z,20.77
2019-04-14T06:18:21.061Z,20.40
2019-04-14T06:20:58.366Z,19.63
2019-04-14T06:23:35.785Z,18.70
2019-04-14T06:26:13.088Z,19.37
2019-04-14T06:28:50.410Z,19.20
2019-04-14T06:31:32.027Z,18.87
2019-04-14T06:34:11.056Z,18.40
2019-04-14T06:36:58.734Z,17.67
2019-04-14T06:39:37.740Z,17.97
2019-04-14T06:42:18.143Z,20.37
2019-04-14T06:44:55.515Z,17.93
2019-04-14T06:47:32.885Z,18.23
2019-04-14T06:50:10.255Z,21.00
2019-04-14T06:52:47.598Z,18.03
2019-04-14T06:55:24.926Z,18.77
2019-04-14T06:58:02.374Z,17.53
2019-04-14T07:00:39.647Z,17.73
2019-04-14T07:03:17.028Z,17.50
2019-04-14T07:05:54.359Z,17.73
2019-04-14T07:08:31.709Z,18.17
2019-04-14T07:11:09.035Z,18.83
2019-04-14T07:13:48.209Z,17.23
2019-04-14T07:16:25.638Z,16.77
2019-04-14T07:19:03.079Z,17.33
2019-04-14T07:21:41.968Z,17.57
2019-04-14T07:24:19.413Z,17.40
2019-04-14T07:26:56.791Z,17.67
2019-04-14T07:29:50.957Z,17.47
2019-04-14T07:32:41.866Z,19.83
2019-04-14T07:35:20.869Z,18.30
2019-04-14T07:38:02.788Z,20.20
2019-04-14T07:40:41.900Z,16.00
2019-04-14T07:43:27.148Z,18.93
2019-04-14T07:46:09.501Z,18.17
2019-04-14T07:49:07.986Z,16.50
2019-04-14T07:52:03.547Z,17.50
2019-04-14T07:54:42.517Z,16.00
2019-04-14T07:57:37.808Z,17.20
2019-04-14T08:00:20.377Z,16.60
2019-04-14T08:03:05.268Z,17.07
2019-04-14T08:05:44.255Z,19.43
2019-04-14T08:08:21.548Z,17.17
2019-04-14T08:10:59.089Z,18.57
2019-04-14T08:13:39.102Z,19.93
2019-04-14T08:16:17.242Z,17.40
2019-04-14T08:18:54.643Z,16.50
2019-04-14T08:21:32.132Z,19.00
2019-04-14T08:24:10.326Z,17.37
2019-04-14T08:26:47.784Z,18.07
2019-04-14T08:29:25.245Z,20.43
2019-04-14T08:32:02.785Z,19.13
2019-04-14T08:34:40.307Z,18.50
2019-04-14T08:37:17.597Z,17.03
2019-04-14T08:39:54.943Z,20.70
2019-04-14T08:42:33.822Z,19.93
2019-04-14T08:45:12.908Z,20.37
2019-04-14T08:47:52.083Z,18.50
2019-04-14T08:50:39.595Z,18.97
2019-04-14T08:53:21.151Z,18.20
2019-04-14T08:56:16.333Z,19.90
2019-04-14T08:58:58.124Z,17.37
2019-04-14T09:01:39.817Z,19.27
2019-04-14T09:04:18.678Z,20.63
2019-04-14T09:07:09.092Z,19.57
2019-04-14T09:09:48.017Z,18.70
2019-04-14T09:12:27.203Z,24.83
2019-04-14T09:15:07.513Z,30.37
2019-04-14T09:17:44.817Z,20.93
2019-04-14T09:20:22.059Z,17.70
2019-04-14T09:23:02.255Z,18.40
2019-04-14T09:25:39.610Z,18.63
2019-04-14T09:28:16.960Z,18.43
2019-04-14T09:30:54.163Z,17.50
2019-04-14T09:33:31.451Z,22.17
2019-04-14T09:36:08.698Z,21.30
2019-04-14T09:38:46.007Z,21.33
2019-04-14T09:41:23.281Z,22.17
2019-04-14T09:44:00.602Z,24.17
2019-04-14T09:46:37.886Z,21.87
2019-04-14T09:49:23.547Z,20.77
2019-04-14T09:52:07.103Z,18.57
2019-04-14T09:54:44.456Z,21.00
2019-04-14T09:57:21.743Z,19.50
2019-04-14T09:59:59.102Z,20.13
2019-04-14T10:02:36.740Z,21.87
2019-04-14T10:05:15.664Z,22.03
2019-04-14T10:07:53.036Z,20.03
2019-04-14T10:10:35.386Z,19.70
2019-04-14T10:13:13.419Z,23.87
2019-04-14T10:15:50.742Z,20.97
2019-04-14T10:18:30.915Z,22.77
2019-04-14T10:21:17.368Z,22.00
2019-04-14T10:23:49.014Z,22.87
2019-04-14T10:26:29.869Z,23.80
2019-04-14T10:29:07.192Z,22.30
2019-04-14T10:31:44.475Z,22.40
2019-04-14T10:34:21.730Z,20.80
2019-04-14T10:36:59.029Z,23.47
2019-04-14T10:39:36.332Z,22.73
2019-04-14T10:42:14.001Z,22.03
2019-04-14T10:44:51.267Z,24.47
2019-04-14T10:47:28.552Z,21.50
2019-04-14T10:50:05.791Z,20.30
2019-04-14T10:52:43.087Z,18.97
2019-04-14T10:55:20.351Z,18.07
2019-04-14T10:57:57.700Z,19.53
2019-04-14T11:00:34.950Z,21.20
2019-04-14T11:03:12.231Z,19.80
2019-04-14T11:05:57.129Z,19.63
2019-04-14T11:08:34.503Z,16.13
2019-04-14T11:11:13.174Z,17.27
2019-04-14T11:13:53.076Z,16.63
2019-04-14T11:16:30.347Z,17.47
2019-04-14T11:19:07.604Z,17.40
2019-04-14T11:21:45.019Z,17.50
2019-04-14T11:24:24.107Z,17.70
2019-04-14T11:27:01.526Z,17.47
2019-04-14T11:29:38.823Z,20.20
2019-04-14T11:32:20.685Z,17.17
2019-04-14T11:35:09.827Z,18.57
2019-04-14T11:38:06.910Z,15.37
2019-04-14T11:40:48.799Z,15.50
2019-04-14T11:43:26.119Z,15.60
2019-04-14T11:46:04.171Z,15.73
2019-04-14T11:48:41.582Z,15.20
2019-04-14T11:51:18.855Z,16.43
2019-04-14T11:53:56.092Z,15.20
2019-04-14T11:56:33.376Z,14.83
2019-04-14T11:59:10.642Z,15.17
2019-04-14T12:01:58.582Z,14.60
2019-04-14T12:04:37.703Z,16.30
2019-04-14T12:07:19.360Z,18.00
2019-04-14T12:10:01.780Z,15.83
2019-04-14T12:12:39.130Z,14.53
2019-04-14T12:15:16.814Z,15.20
2019-04-14T12:17:54.281Z,14.83
2019-04-14T12:20:31.560Z,17.60
2019-04-14T12:23:08.864Z,18.10
2019-04-14T12:25:50.272Z,16.53
2019-04-14T12:28:28.424Z,18.07
2019-04-14T12:31:06.527Z,16.20
2019-04-14T12:33:43.923Z,16.00
2019-04-14T12:36:21.298Z,17.33
2019-04-14T12:39:00.334Z,16.63
2019-04-14T12:41:39.952Z,17.10
2019-04-14T12:44:35.371Z,17.03
2019-04-14T12:47:30.613Z,17.70
2019-04-14T12:50:21.518Z,16.13
2019-04-14T12:52:59.103Z,16.60
2019-04-14T12:55:36.476Z,15.73
2019-04-14T12:58:16.379Z,15.73
2019-04-14T13:00:55.335Z,14.50
2019-04-14T13:03:33.061Z,14.07
2019-04-14T13:06:10.360Z,15.17
2019-04-14T13:08:47.671Z,15.67
2019-04-14T13:11:24.951Z,15.27
2019-04-14T13:14:04.267Z,12.73
2019-04-14T13:16:42.982Z,14.50
2019-04-14T13:19:20.612Z,14.00
2019-04-14T13:21:57.926Z,14.10
2019-04-14T13:24:35.175Z,14.03
2019-04-14T13:27:12.542Z,13.57
2019-04-14T13:29:49.790Z,13.37
2019-04-14T13:32:35.762Z,12.23
2019-04-14T13:35:06.844Z,13.60
2019-04-14T13:37:44.163Z,14.37
2019-04-14T13:40:22.461Z,14.00
2019-04-14T13:42:59.686Z,13.23
2019-04-14T13:45:36.949Z,13.30
2019-04-14T13:48:14.308Z,14.00
2019-04-14T13:50:51.538Z,14.33
2019-04-14T13:53:30.867Z,13.17
2019-04-14T13:56:07.783Z,13.23
2019-04-14T13:58:45.024Z,13.60
2019-04-14T14:01:23.775Z,13.00
2019-04-14T14:04:01.063Z,13.40
2019-04-14T14:06:38.371Z,13.90
2019-04-14T14:09:15.680Z,11.97
2019-04-14T14:12:01.734Z,13.00
2019-04-14T14:14:46.488Z,12.70
2019-04-14T14:17:28.435Z,11.20
2019-04-14T14:20:26.653Z,10.97
2019-04-14T14:23:11.436Z,10.83
2019-04-14T14:25:50.417Z,11.87
2019-04-14T14:28:27.721Z,11.43
2019-04-14T14:31:05.355Z,10.70
2019-04-14T14:33:45.243Z,10.53
2019-04-14T14:36:28.738Z,9.93
2019-04-14T14:39:10.402Z,10.70
2019-04-14T14:41:47.854Z,11.23
2019-04-14T14:44:27.004Z,10.40
2019-04-14T14:47:12.199Z,11.73
2019-04-14T14:49:58.260Z,11.83
2019-04-14T14:52:37.294Z,11.70
2019-04-14T14:55:14.606Z,10.27
2019-04-14T14:57:54.751Z,8.90
2019-04-14T15:00:33.503Z,8.97
2019-04-14T15:03:10.741Z,9.63
2019-04-14T15:05:48.180Z,9.83
2019-04-14T15:08:25.420Z,9.57
2019-04-14T15:11:04.160Z,10.10
2019-04-14T15:13:41.815Z,9.50
2019-04-14T15:16:19.143Z,10.30
2019-04-14T15:18:56.407Z,10.33
2019-04-14T15:21:33.746Z,11.17
2019-04-14T15:24:10.993Z,9.80
2019-04-14T15:26:48.300Z,10.43
2019-04-14T15:29:25.585Z,10.50
2019-04-14T15:32:02.878Z,9.93
2019-04-14T15:34:40.196Z,10.23
2019-04-14T15:37:17.473Z,12.07
2019-04-14T15:39:54.800Z,10.40
2019-04-14T15:42:32.061Z,10.67
2019-04-14T15:45:13.847Z,10.43
2019-04-14T15:47:52.755Z,9.73
2019-04-14T15:50:30.185Z,9.40
2019-04-14T15:53:07.667Z,8.33
2019-04-14T15:55:45.056Z,8.97
2019-04-14T15:58:37.352Z,8.50
2019-04-14T16:01:16.815Z,9.03
2019-04-14T16:03:58.440Z,9.20
2019-04-14T16:06:52.774Z,10.17
2019-04-14T16:09:40.889Z,9.60
2019-04-14T16:12:36.236Z,9.80
2019-04-14T16:15:15.116Z,9.13
2019-04-14T16:18:00.065Z,10.27
2019-04-14T16:20:39.213Z,9.60
2019-04-14T16:23:16.926Z,9.37
2019-04-14T16:26:12.068Z,9.83
2019-04-14T16:28:51.093Z,8.67
2019-04-14T16:31:36.399Z,8.07
2019-04-14T16:34:22.439Z,7.90
2019-04-14T16:36:59.920Z,7.90
2019-04-14T16:39:37.277Z,8.40
2019-04-14T16:42:16.134Z,8.30
2019-04-14T16:44:53.467Z,8.30
2019-04-14T16:47:32.845Z,7.60
2019-04-14T16:50:10.249Z,9.10
2019-04-14T16:52:52.422Z,9.80
2019-04-14T16:55:31.388Z,9.47
2019-04-14T16:58:17.123Z,9.13
2019-04-14T17:01:00.101Z,10.10
2019-04-14T17:03:40.372Z,10.53
2019-04-14T17:06:19.419Z,9.93
2019-04-14T17:08:59.958Z,23.93
2019-04-14T17:11:37.393Z,21.50
2019-04-14T17:14:25.223Z,33.20
2019-04-14T17:17:16.318Z,67.10
2019-04-14T17:19:58.384Z,38.20
2019-04-14T17:22:46.477Z,26.50
2019-04-14T17:25:31.580Z,32.67
2019-04-14T17:28:14.127Z,9.13
2019-04-14T17:30:53.427Z,18.20
2019-04-14T17:33:32.484Z,9.70
2019-04-14T17:36:13.682Z,8.97
2019-04-14T17:39:07.707Z,9.73
2019-04-14T17:42:02.821Z,10.30
2019-04-14T17:44:41.947Z,10.13
2019-04-14T17:47:36.507Z,16.67
2019-04-14T17:50:40.528Z,11.80
2019-04-14T17:53:15.982Z,10.37
2019-04-14T17:55:54.957Z,10.57
2019-04-14T17:58:36.387Z,10.63
2019-04-14T18:04:45.749Z,9.13
2019-04-14T18:07:25.082Z,10.43
2019-04-14T18:10:19.418Z,9.47
2019-04-14T18:13:01.365Z,10.03
2019-04-14T18:15:52.329Z,10.03
2019-04-14T18:18:43.318Z,9.70
2019-04-14T18:21:20.585Z,8.53
2019-04-14T18:23:57.973Z,8.23
2019-04-14T18:26:35.684Z,7.33
2019-04-14T18:29:31.063Z,9.03
2019-04-14T18:32:23.413Z,8.47
2019-04-14T18:35:08.118Z,7.97
2019-04-14T18:37:47.158Z,8.40
2019-04-14T18:40:26.156Z,9.00
2019-04-14T18:43:10.963Z,7.63
2019-04-14T18:45:56.160Z,8.17
2019-04-14T18:48:36.646Z,18.17
2019-04-14T18:51:15.968Z,15.03
2019-04-14T18:53:55.272Z,10.43
2019-04-14T18:56:52.185Z,8.63
2019-04-14T18:59:31.627Z,8.33
2019-04-14T19:02:12.126Z,8.00
2019-04-14T19:07:49.861Z,9.00
2019-04-14T19:17:33.259Z,9.67
2019-04-14T19:20:22.786Z,9.10
2019-04-14T19:23:20.017Z,8.53
2019-04-14T19:25:57.777Z,9.17
2019-04-14T19:28:35.853Z,9.23
2019-04-14T19:31:15.247Z,9.33
2019-04-14T19:33:52.667Z,10.03
2019-04-14T19:36:36.510Z,9.90
2019-04-14T19:39:16.081Z,9.50
2019-04-14T19:41:53.927Z,9.83
2019-04-14T19:44:31.395Z,8.33
2019-04-14T19:47:13.550Z,8.93
2019-04-14T19:49:50.851Z,8.57
2019-04-14T19:52:29.564Z,8.57
2019-04-14T19:55:19.479Z,9.60
2019-04-14T19:57:46.596Z,8.57
2019-04-14T20:00:24.051Z,8.70
2019-04-14T20:03:02.801Z,8.30
2019-04-14T20:05:40.130Z,9.10
2019-04-14T20:08:17.454Z,8.80
2019-04-14T20:10:55.550Z,8.20
2019-04-14T20:13:34.495Z,8.23
2019-04-14T20:16:29.068Z,8.53
2019-04-14T20:19:26.175Z,9.10
2019-04-14T20:22:16.353Z,9.97
2019-04-14T20:24:58.235Z,10.07
2019-04-14T20:27:45.225Z,9.53
2019-04-14T20:30:24.150Z,9.70
2019-04-14T20:33:02.866Z,11.57
2019-04-14T20:35:41.009Z,10.23
2019-04-14T20:38:18.518Z,10.43
2019-04-14T20:40:55.767Z,10.33
2019-04-14T20:43:33.111Z,9.73
2019-04-14T20:46:10.417Z,10.40
2019-04-14T20:48:47.721Z,10.17
2019-04-14T20:51:25.070Z,10.40
2019-04-14T20:54:02.423Z,10.47
2019-04-14T20:56:39.723Z,9.30
2019-04-14T20:59:17.068Z,9.37
2019-04-14T21:01:56.439Z,9.30
2019-04-14T21:05:01.600Z,9.67
2019-04-14T21:08:06.740Z,9.87
2019-04-14T21:11:10.332Z,10.30
2019-04-14T21:14:06.390Z,8.53
2019-04-14T21:17:04.771Z,9.57
2019-04-14T21:19:55.392Z,9.80
2019-04-14T21:22:52.327Z,9.17
2019-04-14T21:26:00.174Z,8.73
2019-04-14T21:28:59.936Z,9.63
2019-04-14T21:32:06.075Z,9.03
2019-04-14T21:35:24.501Z,8.87
2019-04-14T21:38:24.972Z,9.37
2019-04-14T21:41:27.593Z,9.50
2019-04-14T21:44:17.146Z,9.40
2019-04-14T21:47:08.558Z,9.67
2019-04-14T21:53:39.878Z,10.27
2019-04-14T21:56:36.972Z,11.20
2019-04-14T21:59:32.539Z,10.43
2019-04-14T22:05:55.891Z,9.73
2019-04-14T22:09:07.143Z,9.53
2019-04-14T22:12:06.794Z,8.60
2019-04-14T22:15:00.325Z,10.17
2019-04-14T22:17:53.018Z,10.07
2019-04-14T22:20:43.598Z,8.20
2019-04-14T22:23:35.357Z,9.50
2019-04-14T22:26:26.714Z,10.27
2019-04-14T22:29:12.441Z,9.17
2019-04-14T22:31:58.906Z,10.70
2019-04-14T22:35:00.694Z,9.87
2019-04-14T22:37:50.854Z,9.80
2019-04-14T22:40:35.042Z,9.90
2019-04-14T22:43:25.902Z,9.43
2019-04-14T22:46:31.128Z,9.23
2019-04-14T22:49:19.685Z,10.27
2019-04-14T22:52:22.161Z,9.83
2019-04-14T22:55:01.416Z,10.63
2019-04-14T22:57:52.579Z,10.07
2019-04-14T23:00:35.371Z,9.30
2019-04-14T23:03:51.710Z,8.33
2019-04-14T23:06:38.684Z,9.20
2019-04-14T23:09:41.174Z,9.47
2019-04-14T23:12:40.205Z,10.00
2019-04-14T23:15:35.077Z,8.73
2019-04-14T23:18:29.075Z,10.03
2019-04-14T23:21:24.919Z,8.87
2019-04-14T23:24:13.211Z,8.77
2019-04-14T23:27:35.915Z,9.90
2019-04-14T23:30:39.497Z,9.70
2019-04-14T23:33:26.325Z,9.27
2019-04-14T23:36:02.768Z,9.53
2019-04-14T23:38:50.111Z,10.30
2019-04-14T23:41:43.915Z,9.47
2019-04-14T23:44:42.213Z,9.33
2019-04-14T23:47:34.338Z,9.33
2019-04-14T23:50:23.080Z,9.80
2019-04-14T23:53:15.203Z,11.07
2019-04-14T23:56:02.699Z,9.30
2019-04-14T23:58:50.348Z,9.47
